Time;durP1;ratioP1;P1;durP2;ratioP2;P2;SDS_P1;SDS_P2;PMS_P1;PMS_P2;Temp;Humidity;BMP_temperature;BMP_pressure;BME280_temperature;BME280_humidity;BME280_pressure;Samples;Min_cycle;Max_cycle;Signal;HPM_P1;HPM_P2
2021/10/12 00:00:00;;;;;;;16.00;9.05;;;8.30;97.90;;;;;;5047877;28;20124;-67
2021/10/12 00:02:27;;;;;;;10.07;8.20;;;8.30;97.30;;;;;;5048925;28;20556;-65
2021/10/12 00:04:54;;;;;;;14.60;8.75;;;8.20;97.30;;;;;;5031168;28;20095;-66
2021/10/12 00:07:21;;;;;;;12.30;8.93;;;8.10;97.10;;;;;;5048703;28;20051;-65
2021/10/12 00:09:49;;;;;;;16.52;9.80;;;8.20;97.50;;;;;;5047478;28;20053;-65
2021/10/12 00:12:16;;;;;;;15.13;8.85;;;8.10;97.60;;;;;;5049044;28;20079;-65
2021/10/12 00:14:43;;;;;;;19.77;8.93;;;8.10;98.00;;;;;;5049595;28;20361;-66
2021/10/12 00:17:10;;;;;;;15.63;10.20;;;8.10;98.00;;;;;;5048638;28;20302;-65
2021/10/12 00:19:37;;;;;;;16.02;10.27;;;8.10;98.40;;;;;;5046726;28;20057;-66
2021/10/12 00:22:05;;;;;;;22.08;8.52;;;8.10;98.20;;;;;;5047820;28;20053;-66
2021/10/12 00:24:32;;;;;;;15.65;9.45;;;8.10;98.50;;;;;;5047246;28;20041;-65
2021/10/12 00:26:59;;;;;;;19.27;10.13;;;8.20;98.50;;;;;;5048402;28;20128;-65
2021/10/12 00:29:26;;;;;;;17.23;9.68;;;8.30;99.10;;;;;;5048815;28;20045;-67
2021/10/12 00:31:53;;;;;;;14.45;9.48;;;8.30;99.40;;;;;;5051521;28;20069;-66
2021/10/12 00:34:20;;;;;;;17.55;9.85;;;8.30;99.00;;;;;;5049187;28;20048;-66
2021/10/12 00:36:47;;;;;;;20.63;10.93;;;8.30;98.60;;;;;;5044445;28;20139;-66
2021/10/12 00:39:14;;;;;;;23.48;9.60;;;8.30;99.30;;;;;;5047136;28;20049;-67
2021/10/12 00:41:41;;;;;;;14.98;9.02;;;8.30;99.00;;;;;;5044420;28;20101;-65
2021/10/12 00:44:08;;;;;;;19.55;9.18;;;8.30;98.10;;;;;;5028186;28;20053;-65
2021/10/12 00:46:35;;;;;;;18.25;9.32;;;8.30;98.60;;;;;;5031120;28;20048;-65
2021/10/12 00:49:03;;;;;;;17.00;9.57;;;8.30;98.70;;;;;;5027771;28;20090;-65
2021/10/12 00:51:30;;;;;;;16.05;9.15;;;8.30;99.00;;;;;;5027338;28;20067;-66
2021/10/12 00:53:57;;;;;;;18.23;9.40;;;8.30;98.30;;;;;;5039044;28;20047;-66
2021/10/12 00:56:24;;;;;;;21.73;9.70;;;8.20;98.60;;;;;;5048654;28;20103;-65
2021/10/12 00:58:51;;;;;;;14.57;9.70;;;8.20;99.00;;;;;;5047761;28;20049;-65
2021/10/12 01:01:18;;;;;;;20.90;10.45;;;8.30;99.60;;;;;;5048478;28;20155;-65
2021/10/12 01:03:46;;;;;;;14.48;9.88;;;8.30;99.80;;;;;;5047833;28;20049;-65
2021/10/12 01:06:13;;;;;;;20.75;10.20;;;8.30;99.90;;;;;;5048525;28;20049;-64
2021/10/12 01:08:40;;;;;;;22.05;10.55;;;8.30;99.10;;;;;;5049149;28;20103;-65
2021/10/12 01:11:07;;;;;;;20.95;9.55;;;8.20;99.10;;;;;;5047332;28;20527;-65
2021/10/12 01:13:34;;;;;;;26.42;10.98;;;8.30;99.00;;;;;;5048120;28;20458;-65
2021/10/12 01:16:02;;;;;;;16.20;9.30;;;8.30;99.80;;;;;;5047460;28;20128;-65
2021/10/12 01:18:29;;;;;;;17.77;10.45;;;8.30;99.50;;;;;;5047253;28;20100;-65
2021/10/12 01:20:56;;;;;;;14.20;9.40;;;8.30;99.60;;;;;;5048310;28;20049;-65
2021/10/12 01:23:23;;;;;;;17.70;10.50;;;8.30;99.40;;;;;;5048763;28;20468;-65
2021/10/12 01:25:50;;;;;;;23.42;10.57;;;8.30;99.80;;;;;;5050465;28;20097;-65
2021/10/12 01:28:17;;;;;;;17.40;9.98;;;8.30;99.10;;;;;;5034747;28;20107;-65
2021/10/12 01:30:44;;;;;;;19.65;11.07;;;8.30;99.90;;;;;;5051799;28;20059;-65
2021/10/12 01:33:11;;;;;;;19.60;10.02;;;8.30;99.10;;;;;;5050495;28;20045;-65
2021/10/12 01:35:38;;;;;;;28.08;10.73;;;8.20;99.00;;;;;;5034524;28;20129;-65
2021/10/12 01:38:06;;;;;;;20.50;9.85;;;8.20;99.70;;;;;;5051326;28;20037;-66
2021/10/12 01:40:33;;;;;;;21.38;9.77;;;8.20;99.90;;;;;;5050682;28;20110;-66
2021/10/12 01:43:01;;;;;;;22.25;12.43;;;8.20;99.60;;;;;;5033740;28;20048;-66
2021/10/12 01:45:28;;;;;;;22.38;10.68;;;8.20;99.00;;;;;;5050152;28;20043;-65
2021/10/12 01:47:55;;;;;;;19.45;10.57;;;8.20;99.40;;;;;;5052058;28;20544;-65
2021/10/12 01:50:22;;;;;;;19.58;10.48;;;8.10;99.70;;;;;;5050174;28;20064;-65
2021/10/12 01:52:49;;;;;;;17.83;9.73;;;8.10;99.60;;;;;;5050716;28;20191;-65
2021/10/12 01:55:19;;;;;;;23.05;10.00;;;8.10;99.80;;;;;;5041036;28;20045;-65
2021/10/12 01:57:46;;;;;;;16.98;10.02;;;8.10;99.90;;;;;;5050522;28;20049;-65
2021/10/12 02:00:13;;;;;;;18.33;10.73;;;8.10;99.90;;;;;;5051401;28;20084;-65
2021/10/12 02:02:45;;;;;;;23.52;10.88;;;8.10;99.70;;;;;;5052835;28;20479;-66
2021/10/12 02:05:12;;;;;;;28.67;10.40;;;8.10;99.90;;;;;;5048719;28;20076;-66
2021/10/12 02:07:39;;;;;;;17.75;9.50;;;8.10;99.90;;;;;;5049828;28;20051;-66
2021/10/12 02:10:06;;;;;;;18.23;9.52;;;8.10;99.90;;;;;;5049850;28;20497;-66
2021/10/12 02:12:33;;;;;;;22.10;10.90;;;8.10;99.80;;;;;;5051274;28;20072;-66
2021/10/12 02:15:01;;;;;;;19.02;10.48;;;8.10;99.90;;;;;;5050036;28;20052;-66
2021/10/12 02:17:28;;;;;;;24.25;9.93;;;8.10;99.90;;;;;;5034064;28;20080;-66
2021/10/12 02:19:55;;;;;;;14.50;9.75;;;8.10;99.90;;;;;;5050513;28;20489;-66
2021/10/12 02:22:22;;;;;;;21.92;11.13;;;8.10;99.90;;;;;;5049532;28;20052;-66
2021/10/12 02:24:49;;;;;;;22.95;9.45;;;8.20;99.80;;;;;;5051088;28;20072;-66
2021/10/12 02:27:16;;;;;;;17.35;9.93;;;8.20;99.90;;;;;;5032939;28;20041;-66
2021/10/12 02:29:43;;;;;;;20.48;9.07;;;8.30;99.90;;;;;;5050633;28;20132;-66
2021/10/12 02:32:10;;;;;;;22.35;8.45;;;8.30;99.60;;;;;;5049335;28;20037;-67
2021/10/12 02:34:37;;;;;;;17.20;9.50;;;8.30;99.80;;;;;;5049976;28;20444;-66
2021/10/12 02:37:04;;;;;;;17.00;10.68;;;8.30;99.70;;;;;;5048974;28;20051;-65
2021/10/12 02:39:32;;;;;;;17.75;8.73;;;8.40;99.50;;;;;;5050820;28;20412;-65
2021/10/12 02:41:59;;;;;;;20.35;9.40;;;8.30;99.60;;;;;;5015856;28;20041;-65
2021/10/12 02:44:26;;;;;;;14.68;8.73;;;8.30;99.60;;;;;;5049267;28;20049;-66
2021/10/12 02:46:53;;;;;;;17.10;9.85;;;8.40;99.40;;;;;;5049242;28;20411;-66
2021/10/12 02:49:19;;;;;;;17.00;9.40;;;8.40;99.20;;;;;;5049471;28;20041;-66
2021/10/12 02:51:46;;;;;;;15.00;9.25;;;8.40;99.40;;;;;;5048934;28;20124;-68
2021/10/12 02:54:13;;;;;;;18.52;9.68;;;8.40;99.10;;;;;;5048297;28;20053;-66
2021/10/12 02:56:41;;;;;;;17.85;9.25;;;8.40;98.50;;;;;;5048823;28;20055;-65
2021/10/12 02:59:08;;;;;;;15.50;8.77;;;8.40;99.10;;;;;;5029791;28;20045;-65
2021/10/12 03:01:35;;;;;;;18.77;10.38;;;8.40;98.80;;;;;;5045752;28;20076;-66
2021/10/12 03:04:02;;;;;;;17.77;8.32;;;8.40;99.10;;;;;;5050136;28;20093;-66
2021/10/12 03:06:29;;;;;;;20.17;10.30;;;8.40;98.80;;;;;;5048465;28;20260;-65
2021/10/12 03:08:57;;;;;;;16.58;7.95;;;8.40;99.40;;;;;;5028639;28;20052;-65
2021/10/12 03:11:24;;;;;;;18.23;8.70;;;8.30;98.70;;;;;;5050560;28;20172;-66
2021/10/12 03:13:51;;;;;;;21.95;9.25;;;8.30;99.10;;;;;;5050378;28;20059;-66
2021/10/12 03:16:18;;;;;;;20.48;8.40;;;8.30;98.70;;;;;;5033026;28;20116;-66
2021/10/12 03:18:45;;;;;;;16.70;8.75;;;8.30;98.90;;;;;;5013265;28;20049;-66
2021/10/12 03:21:14;;;;;;;17.77;9.23;;;8.30;99.10;;;;;;5048204;28;20045;-66
2021/10/12 03:23:41;;;;;;;18.30;9.15;;;8.30;99.50;;;;;;5048504;28;20048;-65
2021/10/12 03:26:08;;;;;;;14.77;8.90;;;8.20;99.40;;;;;;5049777;28;20120;-65
2021/10/12 03:28:35;;;;;;;16.70;8.48;;;8.20;99.60;;;;;;5048798;28;20045;-65
2021/10/12 03:31:02;;;;;;;24.48;8.75;;;8.20;99.50;;;;;;5051351;28;20049;-65
2021/10/12 03:33:29;;;;;;;12.60;8.32;;;8.20;99.90;;;;;;5031898;28;20041;-65
2021/10/12 03:35:58;;;;;;;17.42;8.40;;;8.20;99.70;;;;;;5048130;28;20083;-65
2021/10/12 03:38:25;;;;;;;22.17;9.57;;;8.20;99.50;;;;;;5049116;28;20128;-65
2021/10/12 03:40:53;;;;;;;19.00;8.05;;;8.20;99.70;;;;;;5048684;28;20040;-65
2021/10/12 03:43:20;;;;;;;20.52;8.50;;;8.10;99.50;;;;;;5048023;28;20049;-65
2021/10/12 03:45:47;;;;;;;18.05;8.10;;;8.10;99.50;;;;;;5031845;28;20472;-66
2021/10/12 03:48:14;;;;;;;20.85;9.63;;;8.10;99.70;;;;;;5048143;28;20045;-65
2021/10/12 03:50:41;;;;;;;20.80;8.27;;;8.10;99.30;;;;;;5048318;28;20059;-66
2021/10/12 03:53:08;;;;;;;18.40;9.52;;;8.10;99.80;;;;;;5047620;28;20045;-65
2021/10/12 03:55:36;;;;;;;17.92;8.95;;;8.10;99.30;;;;;;5033751;28;20051;-65
2021/10/12 03:58:03;;;;;;;22.85;8.80;;;8.10;99.40;;;;;;5032505;28;20132;-66
2021/10/12 04:00:30;;;;;;;19.45;8.40;;;8.00;99.30;;;;;;5027003;28;20139;-65
2021/10/12 04:02:58;;;;;;;17.08;7.93;;;8.00;99.70;;;;;;5050559;28;20048;-65
2021/10/12 04:05:25;;;;;;;20.55;9.57;;;8.00;99.40;;;;;;5048319;28;20052;-66
2021/10/12 04:07:52;;;;;;;18.83;8.30;;;8.00;99.60;;;;;;5047834;28;20133;-65
2021/10/12 04:10:19;;;;;;;17.45;9.18;;;8.00;99.00;;;;;;5027692;28;20184;-67
2021/10/12 04:12:46;;;;;;;15.70;8.55;;;8.00;99.40;;;;;;5039908;28;20063;-65
2021/10/12 04:15:13;;;;;;;14.35;7.63;;;7.90;99.20;;;;;;5032036;28;20464;-65
2021/10/12 04:17:40;;;;;;;19.42;7.38;;;7.90;99.40;;;;;;5048126;28;20144;-65
2021/10/12 04:20:08;;;;;;;11.57;8.15;;;7.90;98.70;;;;;;5048622;28;20510;-65
2021/10/12 04:22:35;;;;;;;16.38;7.80;;;7.90;99.30;;;;;;5046572;28;20052;-66
2021/10/12 04:25:02;;;;;;;16.83;8.07;;;7.90;99.00;;;;;;5047891;28;20053;-65
2021/10/12 04:27:29;;;;;;;17.90;7.63;;;7.90;98.90;;;;;;5048141;28;20044;-66
2021/10/12 04:29:56;;;;;;;19.92;7.90;;;7.80;99.00;;;;;;5049560;28;20091;-66
2021/10/12 04:32:23;;;;;;;14.60;8.35;;;7.80;98.50;;;;;;5048923;28;20071;-66
2021/10/12 04:34:50;;;;;;;13.45;7.90;;;7.80;99.20;;;;;;5048650;28;20053;-65
2021/10/12 04:37:18;;;;;;;15.57;7.80;;;7.70;99.40;;;;;;5045832;28;20049;-66
2021/10/12 04:39:45;;;;;;;27.88;9.82;;;7.70;99.20;;;;;;5049211;28;20464;-65
2021/10/12 04:42:12;;;;;;;15.23;7.05;;;7.70;99.10;;;;;;5030443;28;20561;-65
2021/10/12 04:44:39;;;;;;;21.98;8.65;;;7.70;99.00;;;;;;5048359;28;20052;-65
2021/10/12 04:47:06;;;;;;;17.45;8.32;;;7.70;99.00;;;;;;5047619;28;20059;-66
2021/10/12 04:49:33;;;;;;;14.77;7.53;;;7.70;99.00;;;;;;5027474;28;20448;-66
2021/10/12 04:52:00;;;;;;;21.20;8.88;;;7.60;98.70;;;;;;5039647;28;20063;-65
2021/10/12 04:54:27;;;;;;;14.13;7.07;;;7.60;99.30;;;;;;5047388;28;20193;-65
2021/10/12 04:56:54;;;;;;;17.73;7.95;;;7.60;98.90;;;;;;5047172;28;20124;-65
2021/10/12 04:59:21;;;;;;;15.32;8.30;;;7.60;99.40;;;;;;5047815;28;20120;-66
2021/10/12 05:01:48;;;;;;;15.10;8.15;;;7.60;99.30;;;;;;5052697;28;20055;-66
2021/10/12 05:04:16;;;;;;;18.95;7.75;;;7.60;99.80;;;;;;5052100;28;20055;-66
2021/10/12 05:06:43;;;;;;;18.92;8.50;;;7.60;99.80;;;;;;5050992;28;20408;-65
2021/10/12 05:09:09;;;;;;;15.68;7.68;;;7.60;99.80;;;;;;5051866;28;20041;-66
2021/10/12 05:11:36;;;;;;;19.00;8.68;;;7.60;99.60;;;;;;5031091;28;20037;-65
2021/10/12 05:14:03;;;;;;;13.98;7.55;;;7.60;99.30;;;;;;5042645;28;20207;-66
2021/10/12 05:16:32;;;;;;;19.40;9.18;;;7.60;99.30;;;;;;5050766;28;20457;-66
2021/10/12 05:19:00;;;;;;;15.02;8.35;;;7.60;99.20;;;;;;5049135;28;20072;-67
2021/10/12 05:21:28;;;;;;;17.70;9.05;;;7.60;99.60;;;;;;5050380;28;20138;-66
2021/10/12 05:23:55;;;;;;;12.73;7.72;;;7.60;99.80;;;;;;5052087;28;20075;-67
2021/10/12 05:26:22;;;;;;;21.20;9.48;;;7.50;99.90;;;;;;5050118;28;20052;-66
2021/10/12 05:28:51;;;;;;;18.75;9.82;;;7.60;99.90;;;;;;5031112;28;20060;-66
2021/10/12 05:31:19;;;;;;;24.37;8.30;;;7.60;99.90;;;;;;5032674;28;20173;-66
2021/10/12 05:33:47;;;;;;;15.75;7.60;;;7.60;99.80;;;;;;5031224;28;20080;-67
2021/10/12 05:36:14;;;;;;;21.58;8.65;;;7.50;99.90;;;;;;5049321;28;20053;-65
2021/10/12 05:38:41;;;;;;;17.90;8.05;;;7.50;99.90;;;;;;5052145;28;20147;-65
2021/10/12 05:41:09;;;;;;;16.20;8.63;;;7.50;99.70;;;;;;5051806;28;20429;-65
2021/10/12 05:43:36;;;;;;;13.80;8.10;;;7.50;99.60;;;;;;5050436;28;20044;-65
2021/10/12 05:46:03;;;;;;;17.95;7.75;;;7.60;99.90;;;;;;5051578;28;20455;-66
2021/10/12 05:48:30;;;;;;;17.20;8.07;;;7.50;99.30;;;;;;5036898;28;20502;-66
2021/10/12 05:50:57;;;;;;;15.88;7.25;;;7.50;99.70;;;;;;5050508;28;20085;-65
2021/10/12 05:53:45;;;;;;;15.20;7.25;;;7.50;99.70;;;;;;5033233;28;20081;-65
2021/10/12 05:56:19;;;;;;;18.75;7.53;;;7.50;99.20;;;;;;5052055;28;20426;-63
2021/10/12 05:58:49;;;;;;;75.07;48.05;;;7.50;99.80;;;;;;5043260;28;20128;-63
2021/10/12 06:01:18;;;;;;;53.53;33.17;;;7.50;99.30;;;;;;5052608;28;20071;-63
2021/10/12 06:03:45;;;;;;;22.90;14.45;;;7.50;99.90;;;;;;5049863;28;20072;-69
2021/10/12 06:06:12;;;;;;;22.90;11.80;;;7.50;99.80;;;;;;5033485;28;20123;-69
2021/10/12 06:08:40;;;;;;;20.00;9.35;;;7.50;99.90;;;;;;5017379;28;20080;-69
2021/10/12 06:11:07;;;;;;;18.45;9.38;;;7.60;99.90;;;;;;5049311;28;20120;-69
2021/10/12 06:13:37;;;;;;;18.90;9.02;;;7.60;99.90;;;;;;5049788;28;20071;-68
2021/10/12 06:16:04;;;;;;;18.08;9.13;;;7.60;99.70;;;;;;5033173;28;20812;-68
2021/10/12 06:18:33;;;;;;;294.80;220.03;;;7.60;99.80;;;;;;5033255;28;20049;-67
2021/10/12 06:21:00;;;;;;;39.05;25.40;;;7.60;99.90;;;;;;5048695;28;20646;-68
2021/10/12 06:23:27;;;;;;;18.25;10.82;;;7.70;99.90;;;;;;5049465;28;20076;-68
2021/10/12 06:25:54;;;;;;;21.10;11.30;;;7.70;99.90;;;;;;5049977;28;20047;-69
2021/10/12 06:28:21;;;;;;;19.52;10.02;;;7.80;99.90;;;;;;5048309;28;20180;-68
2021/10/12 06:30:48;;;;;;;17.00;9.50;;;7.80;99.90;;;;;;5052276;28;20421;-68
2021/10/12 06:33:15;;;;;;;22.35;8.82;;;7.80;99.80;;;;;;5036916;28;20501;-68
2021/10/12 06:35:42;;;;;;;16.77;9.30;;;7.80;99.90;;;;;;5042769;28;20120;-66
2021/10/12 06:38:10;;;;;;;18.83;8.98;;;7.90;99.90;;;;;;5044017;28;20045;-66
2021/10/12 06:40:39;;;;;;;18.67;9.27;;;8.00;99.90;;;;;;5049760;28;20048;-66
2021/10/12 06:43:06;;;;;;;17.60;9.85;;;8.00;99.90;;;;;;5047827;28;20044;-66
2021/10/12 06:45:33;;;;;;;19.33;10.50;;;8.00;99.90;;;;;;5041264;28;20136;-65
2021/10/12 06:48:00;;;;;;;15.73;9.05;;;8.00;99.90;;;;;;5078562;28;20068;-65
2021/10/12 06:50:27;;;;;;;18.58;8.73;;;8.10;99.90;;;;;;5033601;28;20056;-65
2021/10/12 06:52:54;;;;;;;17.90;9.80;;;8.20;99.90;;;;;;5027696;28;20481;-65
2021/10/12 06:55:21;;;;;;;23.42;8.60;;;8.20;99.90;;;;;;5037077;28;20430;-65
2021/10/12 06:57:48;;;;;;;24.90;10.63;;;8.30;99.90;;;;;;5038674;28;20464;-65
2021/10/12 07:00:16;;;;;;;18.70;9.50;;;8.40;99.90;;;;;;5026674;28;20045;-70
2021/10/12 07:02:43;;;;;;;23.77;9.70;;;8.40;99.90;;;;;;5042117;28;20072;-65
2021/10/12 07:05:11;;;;;;;18.27;9.05;;;8.50;99.90;;;;;;5050414;28;20045;-64
2021/10/12 07:07:38;;;;;;;17.67;9.57;;;8.60;99.90;;;;;;5050102;28;20520;-69
2021/10/12 07:10:06;;;;;;;16.27;9.10;;;8.60;99.90;;;;;;5049275;28;20056;-70
2021/10/12 07:12:33;;;;;;;19.65;10.13;;;8.70;99.90;;;;;;5048854;28;20497;-70
2021/10/12 07:15:00;;;;;;;20.98;9.32;;;8.80;99.90;;;;;;5050031;28;20079;-69
2021/10/12 07:17:27;;;;;;;19.35;9.93;;;8.80;99.90;;;;;;5053590;28;20492;-69
2021/10/12 07:19:54;;;;;;;21.08;9.18;;;8.90;99.90;;;;;;5057046;28;20055;-70
2021/10/12 07:22:24;;;;;;;19.13;9.75;;;8.90;99.90;;;;;;5050168;28;20128;-70
2021/10/12 07:24:52;;;;;;;27.15;11.25;;;9.00;99.90;;;;;;5047631;28;20406;-71
2021/10/12 07:27:19;;;;;;;22.52;10.13;;;9.10;99.90;;;;;;5059607;28;20121;-70
2021/10/12 07:29:46;;;;;;;17.13;8.35;;;9.10;99.90;;;;;;5042662;28;20053;-70
2021/10/12 07:32:14;;;;;;;18.60;9.80;;;9.10;99.90;;;;;;5047463;28;20103;-70
2021/10/12 07:34:41;;;;;;;18.92;9.60;;;9.20;99.60;;;;;;5048870;28;20175;-70
2021/10/12 07:37:08;;;;;;;19.55;10.52;;;9.30;99.60;;;;;;5032469;28;20097;-71
2021/10/12 07:39:35;;;;;;;20.20;9.85;;;9.30;99.70;;;;;;5047947;28;20076;-72
2021/10/12 07:42:05;;;;;;;20.60;9.88;;;9.40;99.50;;;;;;5048287;28;20072;-70
2021/10/12 07:44:32;;;;;;;36.15;23.27;;;9.40;99.20;;;;;;5049068;28;20132;-67
2021/10/12 07:46:59;;;;;;;30.85;19.67;;;9.50;99.20;;;;;;5048072;28;20037;-70
2021/10/12 07:49:26;;;;;;;24.98;10.93;;;9.50;99.10;;;;;;5048773;28;20373;-71
2021/10/12 07:51:53;;;;;;;39.72;22.90;;;9.50;98.90;;;;;;5035817;28;20500;-70
2021/10/12 07:54:37;;;;;;;20.15;11.23;;;9.60;99.10;;;;;;5045190;28;20493;-71
2021/10/12 07:57:09;;;;;;;21.70;8.80;;;9.60;98.70;;;;;;5044685;28;20154;-69
2021/10/12 07:59:36;;;;;;;26.20;9.63;;;9.70;98.70;;;;;;5046712;28;20373;-71
2021/10/12 08:02:03;;;;;;;26.98;9.45;;;9.70;98.70;;;;;;5031269;28;20456;-63
2021/10/12 08:04:30;;;;;;;18.88;8.82;;;9.70;98.50;;;;;;5059244;28;20053;-63
2021/10/12 08:06:57;;;;;;;20.30;9.93;;;9.70;97.90;;;;;;5048415;28;20456;-66
2021/10/12 08:09:27;;;;;;;18.02;8.98;;;9.70;98.50;;;;;;5047507;28;20051;-70
2021/10/12 08:11:54;;;;;;;21.60;9.77;;;9.80;98.40;;;;;;5048178;28;20497;-70
2021/10/12 08:14:22;;;;;;;26.88;9.20;;;9.80;98.60;;;;;;5045613;28;20045;-66
2021/10/12 08:16:49;;;;;;;18.63;9.48;;;9.80;98.00;;;;;;5048855;28;20045;-63
2021/10/12 08:19:16;;;;;;;14.38;8.13;;;9.90;98.10;;;;;;5048520;28;20056;-65
2021/10/12 08:21:43;;;;;;;25.10;9.43;;;9.80;98.00;;;;;;5048236;28;20509;-68
2021/10/12 08:24:11;;;;;;;18.38;8.80;;;9.90;97.90;;;;;;5046759;28;20041;-68
2021/10/12 08:26:39;;;;;;;13.02;8.65;;;9.80;98.10;;;;;;5028951;28;20052;-71
2021/10/12 08:29:06;;;;;;;15.25;8.05;;;9.90;98.30;;;;;;5044187;28;20108;-68
2021/10/12 08:31:33;;;;;;;15.40;9.15;;;9.90;98.20;;;;;;5051414;28;20148;-69
2021/10/12 08:34:01;;;;;;;20.02;9.75;;;9.90;98.10;;;;;;5043638;28;20048;-70
2021/10/12 08:36:30;;;;;;;;;;;9.90;97.80;;;;;;5051180;28;20049;-69
2021/10/12 08:39:06;;;;;;;14.82;8.23;;;10.00;98.10;;;;;;5052425;28;20314;-71
2021/10/12 08:41:37;;;;;;;13.82;8.48;;;10.00;97.90;;;;;;5027994;28;20152;-69
2021/10/12 08:44:04;;;;;;;14.93;8.43;;;10.00;98.00;;;;;;5046678;28;20071;-72
2021/10/12 08:46:31;;;;;;;19.58;8.38;;;10.10;98.10;;;;;;5033209;28;20056;-70
2021/10/12 08:48:59;;;;;;;19.20;8.60;;;10.10;97.70;;;;;;5051054;28;20385;-70
2021/10/12 08:51:26;;;;;;;17.00;8.90;;;10.10;97.80;;;;;;5035895;28;20063;-71
2021/10/12 08:53:53;;;;;;;19.77;9.35;;;10.20;97.90;;;;;;5035266;28;20124;-70
2021/10/12 08:56:23;;;;;;;16.48;9.25;;;10.20;98.10;;;;;;5051529;28;20481;-72
2021/10/12 08:58:50;;;;;;;24.50;10.60;;;10.30;97.70;;;;;;5052597;28;20075;-70
2021/10/12 09:01:17;;;;;;;24.23;10.13;;;10.30;97.80;;;;;;5049609;28;20052;-70
2021/10/12 09:06:33;;;;;;;20.60;8.65;;;10.50;97.80;;;;;;5036617;28;20065;-75
2021/10/12 09:09:16;;;;;;;18.27;9.82;;;10.50;97.60;;;;;;5037283;28;20041;-70
2021/10/12 09:11:43;;;;;;;18.25;9.27;;;10.60;97.60;;;;;;5052438;28;20106;-75
2021/10/12 09:14:12;;;;;;;16.75;9.63;;;10.60;97.40;;;;;;5051438;28;20075;-74
2021/10/12 09:16:41;;;;;;;18.15;10.02;;;10.70;96.80;;;;;;5051449;28;20041;-71
2021/10/12 09:19:09;;;;;;;19.75;10.80;;;10.80;97.00;;;;;;5035050;28;20052;-70
2021/10/12 09:21:38;;;;;;;21.92;10.07;;;10.80;97.10;;;;;;5064944;28;20052;-71
2021/10/12 09:24:05;;;;;;;18.00;9.23;;;10.90;96.80;;;;;;5052834;28;20464;-70
2021/10/12 09:26:34;;;;;;;17.25;8.70;;;11.00;96.70;;;;;;5052964;28;20407;-70
2021/10/12 09:29:09;;;;;;;23.27;10.63;;;11.00;97.00;;;;;;5035106;28;20055;-69
2021/10/12 09:31:41;;;;;;;15.63;10.57;;;11.10;96.50;;;;;;5037535;28;20475;-70
2021/10/12 09:34:09;;;;;;;19.33;9.82;;;11.10;96.90;;;;;;5051548;28;20051;-69
2021/10/12 09:36:38;;;;;;;14.23;8.73;;;11.20;97.30;;;;;;5035108;28;20052;-70
2021/10/12 09:39:06;;;;;;;18.45;8.88;;;11.30;96.70;;;;;;5051676;28;20048;-68
2021/10/12 09:41:33;;;;;;;24.30;10.93;;;11.30;96.50;;;;;;5034853;28;20492;-69
2021/10/12 09:44:28;;;;;;;14.75;9.30;;;11.30;96.30;;;;;;5052343;28;20045;-68
2021/10/12 09:47:08;;;;;;;19.00;10.05;;;11.30;95.60;;;;;;5048427;28;20405;-69
2021/10/12 09:49:35;;;;;;;19.00;11.10;;;11.30;95.80;;;;;;5051139;28;20049;-69
2021/10/12 09:52:06;;;;;;;17.80;9.45;;;11.30;95.90;;;;;;5052227;28;20080;-71
2021/10/12 09:54:37;;;;;;;17.52;9.25;;;11.30;96.10;;;;;;5025405;28;20083;-68
2021/10/12 09:57:07;;;;;;;16.02;9.57;;;11.20;95.40;;;;;;5052126;28;20127;-70
2021/10/12 09:59:34;;;;;;;17.73;10.10;;;11.20;95.60;;;;;;5050300;28;20060;-69
2021/10/12 10:02:01;;;;;;;18.50;10.00;;;11.20;95.80;;;;;;5066215;28;20099;-69
2021/10/12 10:04:33;;;;;;;22.75;9.35;;;11.20;95.50;;;;;;5036168;28;20325;-70
2021/10/12 10:07:04;;;;;;;18.42;9.88;;;11.20;95.60;;;;;;5052310;28;20059;-69
2021/10/12 10:09:35;;;;;;;15.90;9.57;;;11.20;95.60;;;;;;5050324;28;20053;-69
2021/10/12 10:12:05;;;;;;;15.35;10.05;;;11.30;95.70;;;;;;5051873;28;20108;-75
2021/10/12 10:14:38;;;;;;;15.77;9.68;;;11.30;95.70;;;;;;5032480;28;20119;-68
2021/10/12 10:17:05;;;;;;;21.10;9.38;;;11.40;95.80;;;;;;5050698;28;20049;-71
2021/10/12 10:19:36;;;;;;;13.73;7.82;;;11.40;95.40;;;;;;5050853;28;20052;-70
2021/10/12 10:22:04;;;;;;;18.67;8.32;;;11.50;95.40;;;;;;5051006;28;20155;-68
2021/10/12 10:24:33;;;;;;;16.45;9.05;;;11.50;95.10;;;;;;5050127;28;20434;-71
2021/10/12 10:27:01;;;;;;;21.65;10.23;;;11.50;95.30;;;;;;5050482;28;20056;-71
2021/10/12 10:29:29;;;;;;;18.02;8.68;;;11.70;95.20;;;;;;5067027;28;20097;-79
2021/10/12 10:32:21;;;;;;;16.13;7.85;;;11.80;95.00;;;;;;5039423;28;20073;-69
2021/10/12 10:35:01;;;;;;;14.18;8.07;;;11.90;94.50;;;;;;5017871;28;20537;-72
2021/10/12 10:37:30;;;;;;;20.27;7.68;;;12.10;94.50;;;;;;5050469;28;20529;-74
2021/10/12 10:40:26;;;;;;;14.32;7.25;;;12.20;94.10;;;;;;5045982;28;20069;-74
2021/10/12 10:42:55;;;;;;;16.10;8.40;;;12.40;93.30;;;;;;5029426;28;20129;-70
2021/10/12 10:45:48;;;;;;;16.15;7.85;;;12.60;92.80;;;;;;5032876;28;20078;-75
2021/10/12 10:48:19;;;;;;;20.10;7.72;;;12.60;92.60;;;;;;5048136;28;20675;-70
2021/10/12 10:51:20;;;;;;;70.30;49.03;;;12.70;92.40;;;;;;5050744;28;20052;-71
2021/10/12 10:53:47;;;;;;;23.70;10.32;;;12.80;92.60;;;;;;5049605;28;20081;-70
2021/10/12 10:56:14;;;;;;;15.00;7.57;;;12.80;92.80;;;;;;5049963;28;20402;-72
2021/10/12 10:58:41;;;;;;;14.57;7.15;;;12.90;92.60;;;;;;5032250;28;20125;-71
2021/10/12 11:01:08;;;;;;;17.95;7.68;;;13.10;92.50;;;;;;5053642;28;20858;-72
2021/10/12 11:03:40;;;;;;;15.05;6.18;;;13.30;92.20;;;;;;5050821;28;20053;-71
2021/10/12 11:06:15;;;;;;;13.18;6.00;;;13.40;91.40;;;;;;5050280;28;20049;-70
2021/10/12 11:08:59;;;;;;;10.80;5.78;;;13.60;91.00;;;;;;5051086;28;20049;-67
2021/10/12 11:11:31;;;;;;;12.88;5.72;;;13.90;90.60;;;;;;5049584;28;20053;-69
2021/10/12 11:13:59;;;;;;;10.90;5.78;;;14.10;90.20;;;;;;5027758;28;20507;-69
2021/10/12 11:16:35;;;;;;;14.52;6.25;;;14.10;90.50;;;;;;5050200;28;20135;-69
2021/10/12 11:19:03;;;;;;;13.07;6.78;;;14.10;88.60;;;;;;5033754;28;20472;-71
2021/10/12 11:21:30;;;;;;;18.67;8.95;;;14.10;89.80;;;;;;5028678;28;20089;-77
2021/10/12 11:23:58;;;;;;;16.17;5.95;;;14.10;88.00;;;;;;5043531;28;20069;-77
2021/10/12 11:26:30;;;;;;;11.45;4.95;;;14.20;88.40;;;;;;5048254;28;20053;-71
2021/10/12 11:28:59;;;;;;;13.75;4.90;;;14.30;88.60;;;;;;5048909;28;20056;-71
2021/10/12 11:31:28;;;;;;;12.60;5.50;;;14.40;87.60;;;;;;5049238;28;20084;-72
2021/10/12 11:33:59;;;;;;;18.02;4.80;;;14.50;86.90;;;;;;5031298;28;20102;-72
2021/10/12 11:36:28;;;;;;;9.25;3.85;;;14.60;85.10;;;;;;5009170;28;20049;-71
2021/10/12 11:38:57;;;;;;;9.10;3.97;;;14.60;86.10;;;;;;5027373;28;20081;-71
2021/10/12 11:41:31;;;;;;;8.07;3.25;;;14.70;85.00;;;;;;5033563;28;20084;-71
2021/10/12 11:44:02;;;;;;;10.45;3.75;;;14.70;84.30;;;;;;5040063;28;20050;-71
2021/10/12 11:46:35;;;;;;;9.00;3.35;;;14.70;84.50;;;;;;5048151;28;20056;-70
2021/10/12 11:49:12;;;;;;;9.80;4.10;;;14.70;84.90;;;;;;5033491;28;20089;-69
2021/10/12 11:51:40;;;;;;;9.80;3.50;;;14.90;84.30;;;;;;5045300;28;20053;-70
2021/10/12 11:54:07;;;;;;;6.00;3.40;;;15.00;83.50;;;;;;5039044;28;20067;-70
2021/10/12 11:56:36;;;;;;;6.47;3.28;;;15.00;83.30;;;;;;5036306;28;20053;-71
2021/10/12 11:59:04;;;;;;;8.43;3.90;;;15.10;83.10;;;;;;5042404;28;20045;-66
2021/10/12 12:01:40;;;;;;;7.38;3.53;;;15.10;82.50;;;;;;5059624;28;20305;-68
2021/10/12 12:04:07;;;;;;;9.98;3.22;;;15.10;84.00;;;;;;5046356;28;20122;-67
2021/10/12 12:06:43;;;;;;;22.73;15.00;;;15.10;83.10;;;;;;5046156;28;20049;-67
2021/10/12 12:09:17;;;;;;;13.73;7.63;;;15.10;82.60;;;;;;5029458;28;20500;-67
2021/10/12 12:11:44;;;;;;;6.68;3.38;;;15.20;83.40;;;;;;5046785;28;20045;-66
2021/10/12 12:14:11;;;;;;;10.82;4.80;;;15.20;83.20;;;;;;5046866;28;20545;-68
2021/10/12 12:16:39;;;;;;;8.18;2.85;;;15.20;82.40;;;;;;5043770;28;20045;-69
2021/10/12 12:19:20;;;;;;;8.38;3.58;;;15.20;82.30;;;;;;5046984;28;20044;-69
2021/10/12 12:21:47;;;;;;;10.88;4.10;;;15.20;82.80;;;;;;5048570;28;20049;-68
2021/10/12 12:24:19;;;;;;;9.07;3.55;;;15.20;83.10;;;;;;5052750;28;20071;-69
2021/10/12 12:26:46;;;;;;;6.00;3.40;;;15.30;82.40;;;;;;5031506;28;20532;-68
2021/10/12 12:29:22;;;;;;;11.55;3.00;;;15.30;81.70;;;;;;5031294;28;20052;-69
2021/10/12 12:31:52;;;;;;;7.10;3.45;;;15.50;82.30;;;;;;5049989;28;20080;-69
2021/10/12 12:34:35;;;;;;;9.18;3.40;;;15.50;80.80;;;;;;5042014;28;20561;-69
2021/10/12 12:37:03;;;;;;;7.28;3.10;;;15.60;82.10;;;;;;5046923;28;20076;-66
2021/10/12 12:39:43;;;;;;;8.30;3.78;;;15.60;81.60;;;;;;5029921;28;20060;-66
2021/10/12 12:42:32;;;;;;;8.20;3.42;;;15.60;81.10;;;;;;5048750;28;20051;-66
2021/10/12 12:45:12;;;;;;;9.68;3.78;;;15.60;82.30;;;;;;5045827;28;20393;-68
2021/10/12 12:47:49;;;;;;;;;;;15.60;82.20;;;;;;5049187;28;20124;-67
2021/10/12 12:50:21;;;;;;;10.55;4.03;;;15.60;81.00;;;;;;5048642;28;19994;-67
2021/10/12 12:52:49;;;;;;;7.15;3.53;;;15.60;80.70;;;;;;5048288;28;20037;-67